Time;durP1;ratioP1;P1;durP2;ratioP2;P2;SDS_P1;SDS_P2;PMS_P1;PMS_P2;Temp;Humidity;BMP_temperature;BMP_pressure;BME280_temperature;BME280_humidity;BME280_pressure;Samples;Min_cycle;Max_cycle;Signal;HPM_P1;HPM_P2
2023/10/14 00:00:56;;;;;;;13.33;7.03;;;;;;;;;;5076998;28;20213;-57
2023/10/14 00:03:29;;;;;;;10.47;6.47;;;;;;;;;;5077462;28;20219;-57
2023/10/14 00:05:55;;;;;;;9.10;5.47;;;;;;;;;;5076705;28;20495;-57
2023/10/14 00:08:21;;;;;;;12.60;6.93;;;;;;;;;;5073507;28;20665;-55
2023/10/14 00:10:47;;;;;;;10.10;6.03;;;;;;;;;;5074303;28;20282;-55
2023/10/14 00:13:16;;;;;;;9.03;6.67;;;;;;;;;;5074003;28;20255;-55
2023/10/14 00:15:45;;;;;;;12.97;7.03;;;;;;;;;;5073981;28;20197;-56
2023/10/14 00:18:11;;;;;;;13.43;6.53;;;;;;;;;;5073914;28;20209;-56
2023/10/14 00:20:37;;;;;;;17.13;8.53;;;;;;;;;;5074222;28;20205;-56
2023/10/14 00:23:04;;;;;;;7.83;4.43;;;;;;;;;;5074026;28;20221;-56
2023/10/14 00:25:32;;;;;;;8.47;3.10;;;;;;;;;;5073716;28;20192;-56
2023/10/14 00:27:58;;;;;;;7.90;3.13;;;;;;;;;;5073811;28;20204;-56
2023/10/14 00:30:27;;;;;;;5.30;3.50;;;;;;;;;;5073958;28;20203;-57
2023/10/14 00:32:55;;;;;;;6.17;3.40;;;;;;;;;;5073659;28;20610;-55
2023/10/14 00:35:23;;;;;;;4.57;3.03;;;;;;;;;;5073961;28;20227;-55
2023/10/14 00:37:49;;;;;;;5.40;3.07;;;;;;;;;;5073671;28;20200;-55
2023/10/14 00:40:22;;;;;;;5.90;2.50;;;;;;;;;;5073638;28;20238;-55
2023/10/14 00:42:50;;;;;;;5.13;2.70;;;;;;;;;;5073814;28;20199;-56
2023/10/14 00:45:20;;;;;;;5.07;2.57;;;;;;;;;;5073833;28;20247;-55
2023/10/14 00:47:46;;;;;;;5.43;2.60;;;;;;;;;;5073452;28;20248;-55
2023/10/14 00:52:59;;;;;;;6.97;2.33;;;;;;;;;;5071677;28;20202;-55
2023/10/14 00:55:41;;;;;;;7.17;2.67;;;;;;;;;;5073493;28;20270;-57
2023/10/14 00:58:07;;;;;;;7.77;2.87;;;;;;;;;;5073483;28;20493;-56
2023/10/14 01:00:37;;;;;;;4.80;2.70;;;;;;;;;;5073562;28;20202;-57
2023/10/14 01:03:07;;;;;;;4.67;2.77;;;;;;;;;;5073325;28;20203;-57
2023/10/14 01:05:36;;;;;;;4.97;2.77;;;;;;;;;;5073285;28;20661;-56
2023/10/14 01:08:03;;;;;;;4.47;2.30;;;;;;;;;;5073248;28;20211;-57
2023/10/14 01:10:29;;;;;;;3.13;2.40;;;;;;;;;;5073225;28;20274;-56
2023/10/14 01:12:56;;;;;;;3.77;2.10;;;;;;;;;;5073164;28;20204;-57
2023/10/14 01:15:22;;;;;;;2.40;1.80;;;;;;;;;;5073242;28;20191;-56
2023/10/14 01:17:48;;;;;;;3.33;1.60;;;;;;;;;;5071644;28;20287;-57
2023/10/14 01:22:43;;;;;;;4.73;1.57;;;;;;;;;;5072958;28;20696;-56
2023/10/14 01:25:14;;;;;;;3.27;1.50;;;;;;;;;;5072843;28;20208;-56
2023/10/14 01:27:43;;;;;;;1.80;1.33;;;;;;;;;;5072706;28;20227;-57
2023/10/14 01:30:11;;;;;;;3.47;1.47;;;;;;;;;;5072828;28;20214;-57
2023/10/14 01:35:13;;;;;;;2.70;1.30;;;;;;;;;;5072743;28;20199;-58
2023/10/14 01:37:40;;;;;;;2.43;1.20;;;;;;;;;;5072670;28;20187;-57
2023/10/14 01:43:10;;;;;;;1.20;1.10;;;;;;;;;;5063863;28;20286;-56
2023/10/14 01:45:41;;;;;;;1.77;1.23;;;;;;;;;;5072518;28;20199;-54
2023/10/14 01:50:44;;;;;;;1.87;1.50;;;;;;;;;;5072372;28;20191;-56
2023/10/14 01:53:11;;;;;;;3.67;1.70;;;;;;;;;;5072403;28;20199;-56
2023/10/14 01:55:42;;;;;;;1.53;1.20;;;;;;;;;;5072263;28;20223;-56
2023/10/14 01:58:13;;;;;;;6.37;1.57;;;;;;;;;;5072353;28;20286;-56
2023/10/14 02:00:39;;;;;;;1.50;1.37;;;;;;;;;;5072192;28;20214;-57
2023/10/14 02:03:06;;;;;;;2.10;1.13;;;;;;;;;;5072252;28;20225;-57
2023/10/14 02:05:34;;;;;;;2.13;1.30;;;;;;;;;;5072150;28;20283;-55
2023/10/14 02:08:00;;;;;;;1.37;1.03;;;;;;;;;;5071991;28;20199;-55
2023/10/14 02:10:27;;;;;;;1.40;1.30;;;;;;;;;;5072061;28;20237;-56
2023/10/14 02:12:56;;;;;;;1.40;1.30;;;;;;;;;;5071911;28;20187;-56
2023/10/14 02:15:24;;;;;;;1.57;1.30;;;;;;;;;;5072045;28;20203;-55
2023/10/14 02:17:50;;;;;;;1.37;1.17;;;;;;;;;;5071862;28;20202;-56
2023/10/14 02:20:28;;;;;;;1.73;1.30;;;;;;;;;;5071975;28;20657;-55
2023/10/14 02:22:57;;;;;;;1.00;1.00;;;;;;;;;;5071856;28;20256;-55
2023/10/14 02:25:27;;;;;;;1.20;1.03;;;;;;;;;;5071885;28;20199;-55
2023/10/14 02:27:54;;;;;;;1.70;1.03;;;;;;;;;;5071584;28;20257;-55
2023/10/14 02:30:20;;;;;;;1.57;1.03;;;;;;;;;;5071387;28;20286;-55
2023/10/14 02:32:48;;;;;;;1.57;1.10;;;;;;;;;;5071757;28;20298;-55
2023/10/14 02:35:15;;;;;;;2.20;1.10;;;;;;;;;;5071692;28;20226;-55
2023/10/14 02:37:41;;;;;;;2.23;1.40;;;;;;;;;;5071560;28;20210;-55
2023/10/14 02:40:23;;;;;;;3.07;0.90;;;;;;;;;;5071546;28;20240;-56
2023/10/14 02:42:50;;;;;;;1.43;1.10;;;;;;;;;;5071756;28;20227;-56
2023/10/14 02:45:19;;;;;;;1.40;1.10;;;;;;;;;;5071757;28;20286;-57
2023/10/14 02:47:48;;;;;;;2.73;1.20;;;;;;;;;;5071434;28;20243;-56
2023/10/14 02:50:15;;;;;;;1.63;1.03;;;;;;;;;;5071690;28;20190;-56
2023/10/14 02:52:48;;;;;;;1.57;1.17;;;;;;;;;;5071443;28;20590;-56
2023/10/14 02:55:22;;;;;;;1.20;1.03;;;;;;;;;;5071634;28;20196;-56
2023/10/14 02:57:48;;;;;;;1.97;1.40;;;;;;;;;;5071541;28;20242;-56
2023/10/14 03:00:29;;;;;;;2.37;1.50;;;;;;;;;;5071523;28;20195;-56
2023/10/14 03:03:02;;;;;;;2.47;1.40;;;;;;;;;;5071316;28;20215;-56
2023/10/14 03:05:50;;;;;;;2.87;1.10;;;;;;;;;;5071400;28;20733;-56
2023/10/14 03:08:16;;;;;;;1.50;1.20;;;;;;;;;;5071202;28;20638;-56
2023/10/14 03:10:45;;;;;;;2.13;1.03;;;;;;;;;;5071378;28;20222;-56
2023/10/14 03:13:12;;;;;;;2.33;1.40;;;;;;;;;;5071369;28;20310;-57
2023/10/14 03:15:38;;;;;;;1.80;1.20;;;;;;;;;;5071316;28;20283;-57
2023/10/14 03:18:06;;;;;;;2.10;1.20;;;;;;;;;;5071336;28;20195;-57
2023/10/14 03:23:00;;;;;;;3.93;1.70;;;;;;;;;;5071190;28;20203;-57
2023/10/14 03:25:27;;;;;;;6.27;1.50;;;;;;;;;;5071290;28;20195;-58
2023/10/14 03:30:37;;;;;;;5.00;1.97;;;;;;;;;;5071336;28;20191;-57
2023/10/14 03:33:03;;;;;;;4.60;1.53;;;;;;;;;;5071156;28;20674;-57
2023/10/14 03:35:32;;;;;;;4.30;1.60;;;;;;;;;;5071011;28;20310;-57
2023/10/14 03:38:05;;;;;;;8.63;2.30;;;;;;;;;;5071094;28;20219;-56
2023/10/14 03:43:07;;;;;;;5.17;1.80;;;;;;;;;;5073409;28;20237;-57
2023/10/14 03:45:33;;;;;;;5.37;1.60;;;;;;;;;;5074973;28;20199;-57
2023/10/14 03:48:08;;;;;;;4.00;1.53;;;;;;;;;;5074526;28;20346;-57
2023/10/14 03:50:38;;;;;;;5.17;1.63;;;;;;;;;;5074872;28;20199;-57
2023/10/14 03:53:05;;;;;;;6.23;1.70;;;;;;;;;;5074719;28;20210;-57
2023/10/14 03:55:31;;;;;;;4.67;2.00;;;;;;;;;;5074752;28;20330;-57
2023/10/14 03:58:04;;;;;;;5.00;1.90;;;;;;;;;;5074397;28;20898;-57
2023/10/14 04:00:39;;;;;;;5.13;1.60;;;;;;;;;;5074633;28;20622;-57
2023/10/14 04:03:12;;;;;;;4.57;1.40;;;;;;;;;;5074466;28;20199;-57
2023/10/14 04:05:44;;;;;;;2.80;1.30;;;;;;;;;;5074488;28;20199;-57
2023/10/14 04:08:12;;;;;;;2.43;1.43;;;;;;;;;;5074422;28;20599;-57
2023/10/14 04:10:45;;;;;;;7.70;1.77;;;;;;;;;;5074420;28;20208;-57
2023/10/14 04:13:14;;;;;;;5.47;1.57;;;;;;;;;;5074364;28;20283;-57
2023/10/14 04:15:52;;;;;;;5.03;1.90;;;;;;;;;;5074277;28;20202;-59
2023/10/14 04:18:24;;;;;;;7.53;1.80;;;;;;;;;;5072549;28;20671;-56
2023/10/14 04:24:12;;;;;;;3.73;1.43;;;;;;;;;;5061877;28;20218;-56
2023/10/14 04:26:41;;;;;;;4.80;1.67;;;;;;;;;;5074101;28;20228;-56
2023/10/14 04:29:16;;;;;;;5.67;1.77;;;;;;;;;;5074050;28;20231;-56
2023/10/14 04:31:43;;;;;;;5.43;1.80;;;;;;;;;;5073873;28;20592;-56
2023/10/14 04:34:11;;;;;;;8.27;2.13;;;;;;;;;;5072208;28;20195;-56
2023/10/14 04:36:53;;;;;;;6.73;2.43;;;;;;;;;;5073899;28;20215;-56
2023/10/14 04:39:26;;;;;;;7.40;2.13;;;;;;;;;;5073834;28;20243;-56
2023/10/14 04:41:55;;;;;;;5.70;1.60;;;;;;;;;;5073762;28;20204;-56
2023/10/14 04:44:23;;;;;;;8.00;2.20;;;;;;;;;;5073910;28;20294;-57
2023/10/14 04:47:01;;;;;;;9.83;2.30;;;;;;;;;;5073635;28;20227;-56
2023/10/14 04:49:37;;;;;;;6.60;2.00;;;;;;;;;;5073718;28;20499;-56
2023/10/14 04:52:06;;;;;;;5.80;2.23;;;;;;;;;;5073620;28;20551;-57
2023/10/14 04:54:34;;;;;;;9.17;2.43;;;;;;;;;;5073286;28;20290;-56
2023/10/14 04:57:06;;;;;;;7.30;2.20;;;;;;;;;;5073370;28;20557;-57
2023/10/14 04:59:36;;;;;;;5.37;1.83;;;;;;;;;;5073556;28;20233;-56
2023/10/14 05:02:03;;;;;;;6.00;1.80;;;;;;;;;;5073349;28;20249;-57
2023/10/14 05:04:37;;;;;;;6.20;1.80;;;;;;;;;;5073247;28;20204;-56
2023/10/14 05:07:04;;;;;;;9.93;2.23;;;;;;;;;;5073229;28;20286;-56
2023/10/14 05:09:38;;;;;;;8.37;2.23;;;;;;;;;;5073224;28;20219;-56
2023/10/14 05:12:08;;;;;;;6.93;2.13;;;;;;;;;;5073289;28;20210;-56
2023/10/14 05:14:36;;;;;;;10.40;2.40;;;;;;;;;;5073272;28;20243;-56
2023/10/14 05:17:16;;;;;;;6.27;2.20;;;;;;;;;;5072978;28;20207;-56
2023/10/14 05:19:43;;;;;;;7.53;2.20;;;;;;;;;;5072950;28;20201;-57
2023/10/14 05:24:49;;;;;;;6.40;2.17;;;;;;;;;;5072945;28;20187;-57
2023/10/14 05:27:17;;;;;;;6.10;1.93;;;;;;;;;;5072928;28;20227;-57
2023/10/14 05:29:50;;;;;;;4.77;1.97;;;;;;;;;;5072749;28;20223;-57
2023/10/14 05:32:18;;;;;;;6.83;1.97;;;;;;;;;;5072856;28;20199;-57
2023/10/14 05:34:45;;;;;;;5.70;2.20;;;;;;;;;;5072689;28;20757;-57
2023/10/14 05:37:11;;;;;;;6.67;2.47;;;;;;;;;;5070748;28;20215;-57
2023/10/14 05:39:38;;;;;;;10.77;2.53;;;;;;;;;;5072461;28;20235;-57
2023/10/14 05:42:16;;;;;;;7.43;2.33;;;;;;;;;;5072611;28;20264;-57
2023/10/14 05:44:49;;;;;;;8.57;2.23;;;;;;;;;;5072456;28;20206;-57
2023/10/14 05:47:15;;;;;;;5.20;1.73;;;;;;;;;;5070537;28;20223;-57
2023/10/14 05:49:41;;;;;;;6.17;2.10;;;;;;;;;;5070655;28;20195;-57
2023/10/14 05:52:08;;;;;;;6.60;2.50;;;;;;;;;;5072004;28;20278;-57
2023/10/14 05:54:34;;;;;;;10.53;2.50;;;;;;;;;;5071753;28;20192;-57
2023/10/14 05:57:00;;;;;;;8.37;2.47;;;;;;;;;;5072233;28;20195;-57
2023/10/14 05:59:32;;;;;;;6.83;2.10;;;;;;;;;;5072082;28;20199;-57
2023/10/14 06:01:58;;;;;;;6.67;2.23;;;;;;;;;;5071996;28;20265;-57
2023/10/14 06:04:24;;;;;;;8.30;2.57;;;;;;;;;;5071426;28;20203;-57
2023/10/14 06:06:50;;;;;;;5.37;1.80;;;;;;;;;;5071989;28;20247;-57
2023/10/14 06:09:17;;;;;;;9.10;2.30;;;;;;;;;;5072226;28;20225;-57
2023/10/14 06:11:46;;;;;;;6.07;2.00;;;;;;;;;;5072008;28;20196;-56
2023/10/14 06:14:13;;;;;;;5.30;1.90;;;;;;;;;;5071895;28;20202;-57
2023/10/14 06:16:40;;;;;;;6.57;2.50;;;;;;;;;;5071767;28;20275;-57
2023/10/14 06:19:08;;;;;;;12.23;2.73;;;;;;;;;;5071817;28;20207;-57
2023/10/14 06:21:34;;;;;;;9.33;2.47;;;;;;;;;;5071918;28;20286;-57
2023/10/14 06:24:00;;;;;;;6.33;2.20;;;;;;;;;;5071716;28;20230;-56
2023/10/14 06:26:26;;;;;;;6.10;2.60;;;;;;;;;;5071707;28;20227;-56
2023/10/14 06:28:56;;;;;;;5.23;1.83;;;;;;;;;;5071622;28;20203;-57
2023/10/14 06:31:22;;;;;;;9.10;2.77;;;;;;;;;;5069939;28;20661;-57
2023/10/14 06:33:49;;;;;;;7.87;2.13;;;;;;;;;;5070017;28;20282;-57
2023/10/14 06:36:16;;;;;;;9.17;2.83;;;;;;;;;;5071728;28;20211;-57
2023/10/14 06:38:45;;;;;;;9.13;2.90;;;;;;;;;;5071669;28;20274;-56
2023/10/14 06:41:11;;;;;;;8.27;3.03;;;;;;;;;;5071399;28;20574;-57
2023/10/14 06:43:38;;;;;;;11.37;3.20;;;;;;;;;;5071484;28;20719;-57
2023/10/14 06:46:04;;;;;;;10.07;2.20;;;;;;;;;;5071523;28;20226;-57
2023/10/14 06:48:30;;;;;;;7.23;2.10;;;;;;;;;;5071430;28;20603;-58
2023/10/14 06:50:59;;;;;;;8.50;2.43;;;;;;;;;;5071426;28;20610;-57
2023/10/14 06:53:28;;;;;;;7.23;2.20;;;;;;;;;;5069854;28;20503;-58
2023/10/14 06:55:54;;;;;;;7.90;1.90;;;;;;;;;;5071297;28;20286;-58
2023/10/14 06:58:21;;;;;;;8.70;2.07;;;;;;;;;;5071736;28;20199;-58
2023/10/14 07:00:51;;;;;;;5.67;2.23;;;;;;;;;;5071463;28;20199;-58
2023/10/14 07:03:17;;;;;;;7.00;2.00;;;;;;;;;;5071546;28;20207;-58
2023/10/14 07:05:46;;;;;;;7.97;2.77;;;;;;;;;;5071414;28;20200;-59
2023/10/14 07:08:14;;;;;;;8.17;2.37;;;;;;;;;;5071202;28;20227;-58
2023/10/14 07:10:40;;;;;;;12.93;2.80;;;;;;;;;;5071332;28;20196;-58
2023/10/14 07:13:06;;;;;;;7.40;2.37;;;;;;;;;;5069607;28;20219;-58
2023/10/14 07:15:35;;;;;;;13.20;2.40;;;;;;;;;;5071513;28;20282;-57
2023/10/14 07:18:01;;;;;;;4.90;2.03;;;;;;;;;;5073560;28;20198;-57
2023/10/14 07:20:29;;;;;;;7.50;2.30;;;;;;;;;;5075400;28;20205;-59
2023/10/14 07:22:55;;;;;;;8.40;2.47;;;;;;;;;;5073240;28;20200;-58
2023/10/14 07:25:23;;;;;;;6.00;2.00;;;;;;;;;;5073488;28;20302;-57
2023/10/14 07:27:52;;;;;;;10.07;2.53;;;;;;;;;;5075182;28;20223;-57
2023/10/14 07:30:18;;;;;;;6.80;2.30;;;;;;;;;;5075271;28;20206;-57
2023/10/14 07:32:44;;;;;;;8.23;2.17;;;;;;;;;;5075009;28;20196;-57
2023/10/14 07:35:11;;;;;;;6.27;1.93;;;;;;;;;;5074872;28;20226;-57
2023/10/14 07:37:38;;;;;;;7.33;2.20;;;;;;;;;;5075364;28;20196;-57
2023/10/14 07:40:05;;;;;;;4.43;1.90;;;;;;;;;;5074727;28;20240;-57
2023/10/14 07:42:35;;;;;;;7.93;2.70;;;;;;;;;;5074993;28;20209;-57
2023/10/14 07:45:01;;;;;;;9.63;2.57;;;;;;;;;;5074853;28;20198;-57
2023/10/14 07:47:29;;;;;;;9.10;2.33;;;;;;;;;;5074750;28;20612;-57
2023/10/14 07:49:57;;;;;;;4.63;2.13;;;;;;;;;;5074581;28;20200;-57
2023/10/14 07:52:23;;;;;;;4.73;1.93;;;;;;;;;;5073075;28;20207;-58
2023/10/14 07:54:51;;;;;;;9.43;2.27;;;;;;;;;;5074701;28;20222;-59
2023/10/14 07:57:17;;;;;;;9.53;2.83;;;;;;;;;;5074958;28;20277;-59
2023/10/14 07:59:45;;;;;;;9.40;2.43;;;;;;;;;;5074650;28;20720;-59
2023/10/14 08:02:15;;;;;;;9.37;2.60;;;;;;;;;;5074615;28;20621;-59
2023/10/14 08:04:45;;;;;;;6.17;2.23;;;;;;;;;;5074745;28;20200;-58
2023/10/14 08:07:12;;;;;;;6.67;2.20;;;;;;;;;;5074693;28;20322;-60
2023/10/14 08:09:39;;;;;;;7.90;2.23;;;;;;;;;;5074739;28;20206;-59
2023/10/14 08:12:05;;;;;;;6.50;2.50;;;;;;;;;;5074664;28;20199;-59
2023/10/14 08:14:31;;;;;;;6.30;2.30;;;;;;;;;;5074659;28;20229;-58
2023/10/14 08:16:59;;;;;;;7.60;2.30;;;;;;;;;;5072510;28;20199;-59
2023/10/14 08:19:26;;;;;;;7.57;2.00;;;;;;;;;;5074388;28;20208;-60
2023/10/14 08:21:52;;;;;;;7.60;2.40;;;;;;;;;;5074358;28;20210;-58
2023/10/14 08:24:18;;;;;;;9.27;2.57;;;;;;;;;;5074587;28;20211;-58
2023/10/14 08:26:46;;;;;;;7.67;2.17;;;;;;;;;;5074310;28;20309;-58
2023/10/14 08:29:12;;;;;;;10.07;2.63;;;;;;;;;;5073243;28;20195;-58
2023/10/14 08:31:38;;;;;;;6.50;1.70;;;;;;;;;;5074219;28;20269;-58
2023/10/14 08:34:07;;;;;;;6.60;2.53;;;;;;;;;;5074271;28;20620;-58
2023/10/14 08:36:33;;;;;;;6.60;2.20;;;;;;;;;;5072338;28;20265;-60
2023/10/14 08:38:59;;;;;;;11.00;2.83;;;;;;;;;;5073510;28;20200;-57
2023/10/14 08:41:26;;;;;;;4.93;2.20;;;;;;;;;;5073816;28;20685;-57
2023/10/14 08:43:56;;;;;;;5.77;2.20;;;;;;;;;;5073695;28;20206;-55
2023/10/14 08:46:35;;;;;;;6.33;1.97;;;;;;;;;;5073455;28;20292;-61
2023/10/14 08:49:03;;;;;;;11.13;2.77;;;;;;;;;;5059565;28;20211;-61
2023/10/14 08:51:31;;;;;;;7.70;2.43;;;;;;;;;;5053439;28;20252;-61
2023/10/14 08:53:57;;;;;;;6.10;2.17;;;;;;;;;;5053261;28;20765;-60
2023/10/14 08:56:24;;;;;;;9.07;2.23;;;;;;;;;;5053234;28;20201;-61
2023/10/14 08:58:50;;;;;;;8.30;2.33;;;;;;;;;;5049183;28;20211;-61
2023/10/14 09:01:18;;;;;;;5.83;2.27;;;;;;;;;;5048624;28;20208;-60
2023/10/14 09:03:46;;;;;;;6.97;2.30;;;;;;;;;;5051489;28;20249;-59
2023/10/14 09:06:12;;;;;;;6.63;2.60;;;;;;;;;;5053002;28;20202;-60
2023/10/14 09:08:42;;;;;;;5.80;2.00;;;;;;;;;;5053277;28;20203;-60
2023/10/14 09:11:24;;;;;;;4.73;2.07;;;;;;;;;;5053224;28;20627;-58
2023/10/14 09:13:59;;;;;;;4.93;2.33;;;;;;;;;;5053557;28;20192;-58
2023/10/14 09:16:26;;;;;;;5.40;2.27;;;;;;;;;;5053162;28;20230;-57
2023/10/14 09:18:57;;;;;;;6.50;2.37;;;;;;;;;;5053251;28;20195;-58
2023/10/14 09:21:23;;;;;;;6.57;2.40;;;;;;;;;;5051100;28;20203;-58
2023/10/14 09:23:51;;;;;;;7.60;2.20;;;;;;;;;;5053055;28;20195;-58
2023/10/14 09:26:18;;;;;;;7.90;2.00;;;;;;;;;;5052851;28;20221;-57
2023/10/14 09:28:45;;;;;;;6.23;2.20;;;;;;;;;;5052696;28;20210;-58
2023/10/14 09:31:12;;;;;;;6.30;2.40;;;;;;;;;;5052380;28;20576;-58
2023/10/14 09:33:41;;;;;;;8.10;1.90;;;;;;;;;;5052468;28;20195;-58
2023/10/14 09:36:20;;;;;;;5.97;1.97;;;;;;;;;;5052374;28;20239;-58
2023/10/14 09:38:51;;;;;;;5.53;2.40;;;;;;;;;;5052461;28;20198;-58
2023/10/14 09:41:19;;;;;;;5.23;2.57;;;;;;;;;;5052698;28;20275;-57
2023/10/14 09:43:48;;;;;;;5.23;2.13;;;;;;;;;;5052334;28;20757;-58
2023/10/14 09:46:19;;;;;;;7.13;2.57;;;;;;;;;;5052099;28;20207;-58
2023/10/14 09:48:46;;;;;;;8.03;2.20;;;;;;;;;;5052354;28;20250;-58
2023/10/14 09:51:12;;;;;;;8.73;2.97;;;;;;;;;;5052234;28;20567;-58
2023/10/14 09:53:39;;;;;;;8.30;2.40;;;;;;;;;;5052269;28;20565;-58
2023/10/14 09:56:06;;;;;;;6.97;2.10;;;;;;;;;;5052253;28;20203;-58
2023/10/14 09:58:34;;;;;;;7.90;2.30;;;;;;;;;;5052392;28;20556;-59
2023/10/14 10:01:00;;;;;;;5.40;1.97;;;;;;;;;;5051939;28;20258;-59
2023/10/14 10:03:28;;;;;;;5.70;2.37;;;;;;;;;;5052159;28;20289;-57
2023/10/14 10:06:00;;;;;;;4.70;1.73;;;;;;;;;;5052560;28;20242;-59
2023/10/14 10:08:36;;;;;;;7.27;2.80;;;;;;;;;;5067753;28;20711;-59
2023/10/14 10:11:03;;;;;;;7.50;2.10;;;;;;;;;;5052364;28;20196;-59
2023/10/14 10:13:29;;;;;;;6.67;2.10;;;;;;;;;;5052358;28;20194;-58
2023/10/14 10:16:05;;;;;;;5.50;2.07;;;;;;;;;;5052206;28;20200;-57
2023/10/14 10:18:51;;;;;;;6.80;2.27;;;;;;;;;;5052314;28;20222;-58
2023/10/14 10:21:18;;;;;;;5.90;2.47;;;;;;;;;;5052346;28;20750;-58
2023/10/14 10:23:44;;;;;;;5.60;1.90;;;;;;;;;;5052226;28;20202;-58
2023/10/14 10:26:12;;;;;;;9.97;3.23;;;;;;;;;;5052058;28;20200;-57
2023/10/14 10:28:39;;;;;;;6.70;2.10;;;;;;;;;;5052025;28;20200;-59
2023/10/14 10:31:09;;;;;;;7.57;2.50;;;;;;;;;;5051930;28;20196;-57
2023/10/14 10:33:36;;;;;;;;;;;;;;;;;;5052397;28;20635;-57
2023/10/14 10:36:02;;;;;;;;;;;;;;;;;;5052199;28;20052;-57
2023/10/14 10:38:29;;;;;;;8.70;2.50;;;;;;;;;;5052264;28;20076;-56
2023/10/14 10:41:10;;;;;;;5.77;2.30;;;;;;;;;;5051754;28;20613;-58
2023/10/14 10:43:38;;;;;;;9.23;2.20;;;;;;;;;;5051886;28;20293;-58
2023/10/14 10:46:04;;;;;;;7.43;2.50;;;;;;;;;;5051680;28;20200;-57
2023/10/14 10:48:39;;;;;;;8.70;2.60;;;;;;;;;;5051677;28;20228;-57
2023/10/14 10:51:05;;;;;;;8.67;2.60;;;;;;;;;;5051584;28;20628;-57
2023/10/14 10:53:33;;;;;;;7.20;2.17;;;;;;;;;;5051792;28;20200;-57
2023/10/14 10:56:00;;;;;;;6.40;2.10;;;;;;;;;;5051647;28;20208;-57
2023/10/14 10:58:26;;;;;;;4.83;2.30;;;;;;;;;;5051863;28;20200;-57
2023/10/14 11:00:53;;;;;;;5.63;1.90;;;;;;;;;;5051681;28;20709;-57
2023/10/14 11:03:19;;;;;;;5.13;2.20;;;;;;;;;;5051736;28;20204;-57
2023/10/14 11:05:47;;;;;;;8.17;2.40;;;;;;;;;;5051716;28;20203;-56
2023/10/14 11:08:16;;;;;;;4.97;2.30;;;;;;;;;;5051522;28;20239;-57
2023/10/14 11:10:42;;;;;;;8.77;2.77;;;;;;;;;;5051631;28;20212;-57
2023/10/14 11:13:11;;;;;;;6.90;2.70;;;;;;;;;;5051495;28;20195;-57
2023/10/14 11:15:37;;;;;;;4.30;2.03;;;;;;;;;;5051523;28;20223;-57
2023/10/14 11:18:04;;;;;;;5.13;2.30;;;;;;;;;;5051576;28;20682;-57
2023/10/14 11:20:32;;;;;;;5.97;2.20;;;;;;;;;;5051594;28;20204;-56
2023/10/14 11:22:59;;;;;;;7.33;2.40;;;;;;;;;;5051428;28;20197;-57
2023/10/14 11:25:30;;;;;;;8.37;2.57;;;;;;;;;;5051538;28;20206;-57
2023/10/14 11:27:56;;;;;;;5.73;2.13;;;;;;;;;;5051463;28;20232;-57
2023/10/14 11:30:25;;;;;;;7.07;2.27;;;;;;;;;;5051469;28;20279;-57
2023/10/14 11:32:52;;;;;;;6.63;2.50;;;;;;;;;;5051221;28;20192;-57
2023/10/14 11:35:18;;;;;;;9.00;2.80;;;;;;;;;;5051344;28;20606;-57
2023/10/14 11:37:49;;;;;;;8.47;2.07;;;;;;;;;;5051351;28;20188;-56
2023/10/14 11:40:17;;;;;;;6.43;2.20;;;;;;;;;;5051136;28;20240;-56
2023/10/14 11:42:43;;;;;;;7.23;2.10;;;;;;;;;;5051356;28;20204;-57
2023/10/14 11:45:09;;;;;;;5.90;1.97;;;;;;;;;;5051265;28;20196;-56
2023/10/14 11:47:38;;;;;;;4.93;1.90;;;;;;;;;;5051195;28;20228;-57
2023/10/14 11:50:11;;;;;;;4.97;1.80;;;;;;;;;;5051186;28;20250;-56
2023/10/14 11:52:38;;;;;;;5.93;2.20;;;;;;;;;;5051340;28;20203;-56
2023/10/14 11:55:05;;;;;;;5.07;2.30;;;;;;;;;;5051146;28;20203;-56
2023/10/14 11:57:32;;;;;;;6.50;1.90;;;;;;;;;;5051137;28;20196;-57
2023/10/14 11:59:58;;;;;;;6.23;2.07;;;;;;;;;;5051166;28;20200;-57
2023/10/14 12:02:27;;;;;;;6.33;2.00;;;;;;;;;;5051033;28;20203;-58
2023/10/14 12:04:53;;;;;;;7.10;2.23;;;;;;;;;;5054796;28;20246;-58
2023/10/14 12:07:21;;;;;;;6.32;2.33;;;;;;;;;;5053582;28;20749;-58
2023/10/14 12:09:47;;;;;;;6.95;2.22;;;;;;;;;;5053453;28;20892;-58
2023/10/14 12:12:13;;;;;;;7.97;2.50;;;;;;;;;;5054576;28;20192;-55
2023/10/14 12:14:40;;;;;;;11.17;2.77;;;;;;;;;;5054616;28;20223;-55
2023/10/14 12:17:06;;;;;;;4.27;2.10;;;;;;;;;;5054448;28;20206;-57
2023/10/14 12:19:33;;;;;;;9.23;2.27;;;;;;;;;;5054628;28;20201;-57
2023/10/14 12:21:59;;;;;;;6.30;2.00;;;;;;;;;;5054276;28;20197;-57
2023/10/14 12:24:25;;;;;;;5.33;1.97;;;;;;;;;;5054553;28;20612;-57
2023/10/14 12:26:52;;;;;;;5.47;1.93;;;;;;;;;;5054229;28;20223;-56
2023/10/14 12:29:20;;;;;;;8.23;2.27;;;;;;;;;;5054287;28;20223;-56
2023/10/14 12:31:48;;;;;;;6.77;1.70;;;;;;;;;;5054404;28;20200;-56
2023/10/14 12:34:14;;;;;;;5.97;2.43;;;;;;;;;;5054147;28;20211;-56
2023/10/14 12:36:40;;;;;;;9.63;2.40;;;;;;;;;;5054083;28;20323;-56
2023/10/14 12:39:18;;;;;;;6.37;1.77;;;;;;;;;;5053930;28;20184;-56
2023/10/14 12:41:47;;;;;;;5.30;1.37;;;;;;;;;;5054094;28;20670;-56
2023/10/14 12:44:13;;;;;;;2.60;1.20;;;;;;;;;;5053795;28;20631;-58
2023/10/14 12:46:43;;;;;;;5.53;1.67;;;;;;;;;;5053451;28;20674;-55
2023/10/14 12:49:11;;;;;;;2.40;1.33;;;;;;;;;;5053884;28;20234;-57
2023/10/14 12:51:44;;;;;;;3.47;1.30;;;;;;;;;;5053766;28;20254;-55
2023/10/14 12:54:10;;;;;;;2.47;1.10;;;;;;;;;;5053505;28;20262;-54
2023/10/14 12:56:38;;;;;;;2.33;1.00;;;;;;;;;;5053512;28;20188;-54
2023/10/14 12:59:12;;;;;;;2.73;1.20;;;;;;;;;;5053588;28;20239;-54
2023/10/14 13:01:39;;;;;;;4.07;1.33;;;;;;;;;;5053481;28;20207;-55
2023/10/14 13:04:12;;;;;;;2.13;1.17;;;;;;;;;;5053426;28;20251;-55
2023/10/14 13:06:44;;;;;;;2.63;1.23;;;;;;;;;;5053258;28;20204;-55
2023/10/14 13:09:11;;;;;;;4.07;1.10;;;;;;;;;;5053109;28;20215;-55
2023/10/14 13:11:43;;;;;;;1.90;1.10;;;;;;;;;;5053159;28;20200;-58
2023/10/14 13:14:09;;;;;;;1.67;1.00;;;;;;;;;;5052693;28;20233;-58
2023/10/14 13:16:35;;;;;;;2.00;1.17;;;;;;;;;;5053259;28;20204;-57
2023/10/14 13:19:01;;;;;;;2.20;1.00;;;;;;;;;;5053166;28;20348;-55
2023/10/14 13:21:30;;;;;;;2.10;1.20;;;;;;;;;;5052956;28;20278;-58
2023/10/14 13:24:04;;;;;;;2.90;1.17;;;;;;;;;;5052903;28;20677;-59
2023/10/14 13:26:30;;;;;;;1.97;1.00;;;;;;;;;;5053047;28;20208;-60
2023/10/14 13:28:56;;;;;;;2.60;1.33;;;;;;;;;;5052844;28;20265;-62
2023/10/14 13:31:24;;;;;;;2.23;1.03;;;;;;;;;;5052674;28;20295;-60
2023/10/14 13:33:50;;;;;;;3.77;1.50;;;;;;;;;;5052932;28;20205;-59
2023/10/14 13:36:16;;;;;;;3.47;1.53;;;;;;;;;;5052677;28;20220;-57
2023/10/14 13:38:42;;;;;;;3.60;1.33;;;;;;;;;;5052759;28;20196;-60
2023/10/14 13:41:13;;;;;;;2.87;1.60;;;;;;;;;;5052414;28;20286;-58
2023/10/14 13:43:39;;;;;;;3.93;1.43;;;;;;;;;;5052689;28;20200;-58
2023/10/14 13:46:06;;;;;;;2.80;1.40;;;;;;;;;;5052493;28;20200;-54
2023/10/14 13:48:33;;;;;;;3.40;1.43;;;;;;;;;;5052693;28;20224;-60
2023/10/14 13:51:00;;;;;;;3.10;1.30;;;;;;;;;;5052539;28;20207;-59
2023/10/14 13:53:32;;;;;;;2.50;1.30;;;;;;;;;;5052381;28;20714;-61
2023/10/14 13:55:58;;;;;;;3.03;1.27;;;;;;;;;;5052580;28;20230;-60
2023/10/14 13:58:25;;;;;;;3.27;1.37;;;;;;;;;;5052534;28;20192;-60
2023/10/14 14:00:52;;;;;;;3.60;1.33;;;;;;;;;;5052210;28;20258;-61
2023/10/14 14:03:19;;;;;;;3.03;1.40;;;;;;;;;;5052300;28;20196;-61
2023/10/14 14:05:52;;;;;;;2.97;1.60;;;;;;;;;;5052361;28;20231;-61
2023/10/14 14:08:18;;;;;;;2.73;1.40;;;;;;;;;;5052080;28;20760;-61
2023/10/14 14:10:45;;;;;;;5.13;1.20;;;;;;;;;;5052189;28;20211;-61
2023/10/14 14:13:18;;;;;;;2.70;1.20;;;;;;;;;;5051947;28;20779;-61
2023/10/14 14:15:45;;;;;;;4.83;1.50;;;;;;;;;;5051760;28;20200;-61
2023/10/14 14:18:12;;;;;;;3.63;1.40;;;;;;;;;;5051429;28;20205;-61
2023/10/14 14:20:40;;;;;;;3.87;1.40;;;;;;;;;;5051633;28;20287;-61
2023/10/14 14:23:06;;;;;;;3.60;1.60;;;;;;;;;;5051405;28;20639;-62
2023/10/14 14:25:32;;;;;;;3.23;1.23;;;;;;;;;;5050741;28;20197;-62
2023/10/14 14:27:59;;;;;;;4.53;1.60;;;;;;;;;;5051563;28;20220;-62
2023/10/14 14:30:27;;;;;;;3.10;1.20;;;;;;;;;;5051679;28;20364;-62
2023/10/14 14:32:54;;;;;;;5.20;1.40;;;;;;;;;;5051654;28;20218;-62
2023/10/14 14:35:23;;;;;;;4.30;1.60;;;;;;;;;;5051396;28;20220;-62
2023/10/14 14:37:49;;;;;;;4.40;1.53;;;;;;;;;;5051823;28;20200;-61
2023/10/14 14:40:25;;;;;;;5.63;1.33;;;;;;;;;;5051760;28;20232;-61
2023/10/14 14:42:51;;;;;;;2.70;1.63;;;;;;;;;;5051929;28;20245;-62
2023/10/14 14:45:24;;;;;;;6.33;1.63;;;;;;;;;;5051805;28;20201;-62
2023/10/14 14:47:50;;;;;;;4.27;1.50;;;;;;;;;;5051898;28;20272;-62
2023/10/14 14:50:19;;;;;;;4.33;1.63;;;;;;;;;;5051638;28;20199;-62
2023/10/14 14:52:47;;;;;;;5.77;1.40;;;;;;;;;;5049394;28;20200;-61
2023/10/14 14:55:14;;;;;;;4.07;1.47;;;;;;;;;;5051213;28;20203;-62
2023/10/14 14:57:43;;;;;;;3.43;1.23;;;;;;;;;;5051127;28;20207;-61
2023/10/14 15:00:14;;;;;;;5.87;1.40;;;;;;;;;;5051073;28;20204;-62
2023/10/14 15:02:40;;;;;;;3.43;1.80;;;;;;;;;;5051233;28;20394;-62
2023/10/14 15:05:06;;;;;;;2.60;1.47;;;;;;;;;;5051174;28;20650;-62
2023/10/14 15:07:33;;;;;;;3.47;1.40;;;;;;;;;;5051341;28;20227;-62
2023/10/14 15:10:07;;;;;;;2.83;1.50;;;;;;;;;;5050987;28;20200;-62
2023/10/14 15:12:34;;;;;;;3.50;1.50;;;;;;;;;;5051429;28;20287;-62
2023/10/14 15:15:00;;;;;;;3.70;1.83;;;;;;;;;;5051014;28;20204;-62
2023/10/14 15:17:28;;;;;;;3.13;1.50;;;;;;;;;;5051033;28;20603;-62